createdAt,value
2018-03-24T00:01:56.796Z,0.70
2018-03-24T00:04:24.308Z,0.70
2018-03-24T00:06:52.594Z,0.70
2018-03-24T00:09:20.115Z,0.70
2018-03-24T00:11:47.636Z,0.70
2018-03-24T00:14:15.159Z,0.70
2018-03-24T00:16:43.451Z,0.60
2018-03-24T00:19:10.958Z,0.60
2018-03-24T00:21:38.503Z,0.60
2018-03-24T00:24:06.010Z,0.60
2018-03-24T00:26:34.299Z,0.50
2018-03-24T00:29:01.813Z,0.50
2018-03-24T00:31:29.582Z,0.50
2018-03-24T00:33:57.092Z,0.50
2018-03-24T00:36:24.630Z,0.50
2018-03-24T00:38:52.899Z,0.50
2018-03-24T00:41:21.194Z,0.50
2018-03-24T00:43:48.706Z,0.50
2018-03-24T00:46:16.235Z,0.50
2018-03-24T00:48:43.745Z,0.50
2018-03-24T00:51:12.043Z,0.40
2018-03-24T00:53:39.547Z,0.40
2018-03-24T00:56:07.050Z,0.40
2018-03-24T00:58:35.334Z,0.40
2018-03-24T01:01:02.847Z,0.40
2018-03-24T01:03:30.375Z,0.40
2018-03-24T01:05:57.874Z,0.40
2018-03-24T01:08:25.395Z,0.30
2018-03-24T01:10:52.898Z,0.30
2018-03-24T01:13:21.194Z,0.50
2018-03-24T01:15:48.704Z,0.40
2018-03-24T01:18:16.231Z,0.50
2018-03-24T01:20:43.735Z,0.40
2018-03-24T01:23:11.247Z,0.40
2018-03-24T01:25:38.751Z,0.40
2018-03-24T01:28:06.275Z,0.40
2018-03-24T01:30:33.787Z,0.30
2018-03-24T01:33:02.079Z,0.30
2018-03-24T01:35:29.584Z,0.20
2018-03-24T01:37:57.117Z,0.30
2018-03-24T01:40:24.618Z,0.30
2018-03-24T01:42:52.143Z,0.20
2018-03-24T01:45:19.658Z,0.20
2018-03-24T01:47:47.948Z,0.10
2018-03-24T01:50:15.461Z,0.10
2018-03-24T01:52:42.979Z,0.00
2018-03-24T01:55:10.478Z,0.00
2018-03-24T01:57:38.003Z,-0.10
2018-03-24T02:00:05.510Z,-0.10
2018-03-24T02:02:33.035Z,-0.20
2018-03-24T02:05:01.310Z,-0.30
2018-03-24T02:07:28.846Z,-0.30
2018-03-24T02:09:56.361Z,-0.30
2018-03-24T02:12:23.879Z,-0.40
2018-03-24T02:14:51.386Z,-0.50
2018-03-24T02:17:19.678Z,-0.60
2018-03-24T02:19:47.187Z,-0.60
2018-03-24T02:22:14.715Z,-0.60
2018-03-24T02:24:45.662Z,-0.60
2018-03-24T02:27:13.174Z,-0.70
2018-03-24T02:29:41.452Z,-0.70
2018-03-24T02:32:09.750Z,-0.80
2018-03-24T02:34:37.267Z,-0.80
2018-03-24T02:37:04.779Z,-0.90
2018-03-24T02:39:32.306Z,-0.90
2018-03-24T02:42:00.583Z,-1.00
2018-03-24T02:44:28.876Z,-1.10
2018-03-24T02:46:56.392Z,-1.10
2018-03-24T02:49:23.921Z,-1.00
2018-03-24T02:51:52.644Z,-1.10
2018-03-24T02:54:20.176Z,-1.20
2018-03-24T02:56:47.682Z,-1.20
2018-03-24T02:59:15.974Z,-1.30
2018-03-24T03:01:43.483Z,-1.30
2018-03-24T03:04:11.019Z,-1.30
2018-03-24T03:06:38.527Z,-1.30
2018-03-24T03:09:06.818Z,-1.40
2018-03-24T03:11:34.339Z,-1.40
2018-03-24T03:14:01.849Z,-1.40
2018-03-24T03:16:29.371Z,-1.40
2018-03-24T03:18:57.646Z,-1.50
2018-03-24T03:21:30.748Z,-1.50
2018-03-24T03:23:59.028Z,-1.50
2018-03-24T03:26:27.314Z,-1.50
2018-03-24T03:28:54.822Z,-1.50
2018-03-24T03:31:22.347Z,-1.50
2018-03-24T03:33:49.854Z,-1.50
2018-03-24T03:36:17.375Z,-1.40
2018-03-24T03:38:44.891Z,-1.50
2018-03-24T03:41:13.174Z,-1.30
2018-03-24T03:43:40.682Z,-1.40
2018-03-24T03:46:08.203Z,-1.40
2018-03-24T03:48:35.718Z,-1.40
2018-03-24T03:51:03.247Z,-1.40
2018-03-24T03:53:30.758Z,-1.40
2018-03-24T03:55:58.300Z,-1.50
2018-03-24T03:58:26.570Z,-1.50
2018-03-24T04:00:54.094Z,-1.60
2018-03-24T04:03:21.593Z,-1.50
2018-03-24T04:05:49.904Z,-1.50
2018-03-24T04:08:17.414Z,-1.50
2018-03-24T04:10:44.924Z,-1.50
2018-03-24T04:13:12.455Z,-1.50
2018-03-24T04:15:40.725Z,-1.50
2018-03-24T04:18:09.015Z,-1.50
2018-03-24T04:20:36.518Z,-1.60
2018-03-24T04:23:04.038Z,-1.50
2018-03-24T04:25:31.547Z,-1.50
2018-03-24T04:27:59.062Z,-1.30
2018-03-24T04:30:26.568Z,-1.30
2018-03-24T04:32:54.091Z,-1.40
2018-03-24T04:35:21.599Z,-1.30
2018-03-24T04:37:49.123Z,-1.20
2018-03-24T04:40:17.395Z,-1.20
2018-03-24T04:42:44.918Z,-1.30
2018-03-24T04:45:12.430Z,-1.20
2018-03-24T04:47:39.950Z,-1.20
2018-03-24T04:50:07.454Z,-1.20
2018-03-24T04:52:34.983Z,-1.30
2018-03-24T04:55:02.495Z,-1.30
2018-03-24T04:57:30.782Z,-1.20
2018-03-24T04:59:58.288Z,-1.30
2018-03-24T05:02:25.811Z,-1.30
2018-03-24T05:04:53.320Z,-1.30
2018-03-24T05:07:20.871Z,-1.40
2018-03-24T05:09:48.388Z,-1.40
2018-03-24T05:12:15.896Z,-1.50
2018-03-24T05:14:43.423Z,-1.50
2018-03-24T05:17:10.923Z,-1.50
2018-03-24T05:19:39.223Z,-1.50
2018-03-24T05:22:06.722Z,-1.50
2018-03-24T05:24:34.252Z,-1.40
2018-03-24T05:27:01.764Z,-1.50
2018-03-24T05:29:29.289Z,-1.50
2018-03-24T05:31:56.799Z,-1.50
2018-03-24T05:34:25.087Z,-1.40
2018-03-24T05:36:53.355Z,-1.30
2018-03-24T05:39:21.654Z,-1.30
2018-03-24T05:41:49.175Z,-1.30
2018-03-24T05:44:16.691Z,-1.30
2018-03-24T05:46:44.491Z,-1.30
2018-03-24T05:49:12.015Z,-1.20
2018-03-24T05:51:39.524Z,-1.20
2018-03-24T05:54:07.810Z,-1.10
2018-03-24T05:56:36.159Z,-1.20
2018-03-24T05:59:03.687Z,-1.10
2018-03-24T06:01:31.201Z,-1.10
2018-03-24T06:03:59.495Z,-1.10
2018-03-24T06:06:27.423Z,-1.10
2018-03-24T06:08:54.944Z,-1.00
2018-03-24T06:11:22.451Z,-1.00
2018-03-24T06:13:50.743Z,-0.90
2018-03-24T06:16:18.259Z,-1.00
2018-03-24T06:18:45.795Z,-0.90
2018-03-24T06:21:13.311Z,-0.70
2018-03-24T06:23:41.598Z,-0.70
2018-03-24T06:26:09.120Z,-0.70
2018-03-24T06:28:36.647Z,-0.60
2018-03-24T06:31:14.883Z,-0.50
2018-03-24T06:33:42.411Z,-0.50
2018-03-24T06:36:09.930Z,-0.30
2018-03-24T06:38:38.218Z,0.00
2018-03-24T06:41:05.731Z,0.00
2018-03-24T06:43:33.258Z,0.20
2018-03-24T06:46:00.759Z,0.40
2018-03-24T06:48:28.291Z,0.50
2018-03-24T06:50:55.795Z,0.70
2018-03-24T06:53:24.063Z,0.90
2018-03-24T06:55:52.355Z,0.80
2018-03-24T06:58:19.861Z,0.80
2018-03-24T07:00:47.383Z,1.00
2018-03-24T07:03:14.886Z,1.10
2018-03-24T07:05:42.408Z,1.20
2018-03-24T07:08:09.919Z,1.30
2018-03-24T07:10:37.443Z,1.30
2018-03-24T07:13:04.947Z,1.60
2018-03-24T07:15:33.230Z,1.60
2018-03-24T07:18:01.501Z,1.50
2018-03-24T07:20:29.790Z,1.70
2018-03-24T07:22:58.055Z,1.70
2018-03-24T07:25:26.352Z,1.80
2018-03-24T07:27:53.855Z,1.70
2018-03-24T07:30:21.378Z,1.80
2018-03-24T07:32:48.884Z,1.80
2018-03-24T07:35:16.412Z,2.00
2018-03-24T07:37:43.911Z,2.10
2018-03-24T07:40:11.432Z,2.20
2018-03-24T07:42:38.944Z,2.10
2018-03-24T07:45:07.236Z,2.30
2018-03-24T07:47:34.783Z,2.30
2018-03-24T07:50:02.290Z,2.40
2018-03-24T07:52:29.800Z,2.50
2018-03-24T07:54:57.323Z,2.70
2018-03-24T07:57:24.830Z,2.90
2018-03-24T07:59:52.346Z,3.10
2018-03-24T08:02:20.679Z,2.90
2018-03-24T08:04:48.922Z,2.90
2018-03-24T08:07:17.192Z,2.80
2018-03-24T08:09:45.480Z,3.00
2018-03-24T08:12:12.977Z,3.00
2018-03-24T08:14:40.499Z,3.30
2018-03-24T08:17:08.004Z,3.10
2018-03-24T08:19:35.536Z,2.90
2018-03-24T08:22:03.034Z,3.30
2018-03-24T08:24:30.568Z,3.40
2018-03-24T08:26:58.075Z,3.40
2018-03-24T08:29:26.375Z,3.60
2018-03-24T08:31:53.882Z,3.60
2018-03-24T08:34:21.399Z,3.60
2018-03-24T08:36:48.907Z,3.70
2018-03-24T08:39:16.426Z,3.80
2018-03-24T08:41:43.924Z,3.70
2018-03-24T08:44:11.451Z,3.80
2018-03-24T08:46:38.964Z,3.90
2018-03-24T08:49:07.236Z,4.00
2018-03-24T08:51:35.523Z,4.10
2018-03-24T08:54:03.027Z,4.10
2018-03-24T08:56:30.551Z,4.10
2018-03-24T08:58:58.058Z,4.20
2018-03-24T09:01:25.575Z,4.50
2018-03-24T09:03:53.075Z,4.40
2018-03-24T09:06:20.591Z,4.60
2018-03-24T09:08:48.142Z,4.60
2018-03-24T09:11:16.403Z,4.60
2018-03-24T09:13:43.902Z,4.50
2018-03-24T09:16:11.415Z,4.60
2018-03-24T09:18:39.678Z,4.60
2018-03-24T09:21:07.971Z,4.90
2018-03-24T09:23:35.474Z,4.90
2018-03-24T09:26:03.002Z,5.30
2018-03-24T09:28:30.514Z,5.40
2018-03-24T09:30:58.035Z,5.60
2018-03-24T09:33:25.547Z,5.50
2018-03-24T09:35:53.848Z,5.10
2018-03-24T09:38:21.350Z,5.10
2018-03-24T09:40:48.876Z,5.30
2018-03-24T09:43:16.380Z,5.20
2018-03-24T09:45:43.915Z,5.40
2018-03-24T09:48:11.424Z,5.40
2018-03-24T09:50:39.702Z,5.80
2018-03-24T09:53:07.975Z,5.70
2018-03-24T09:55:35.496Z,5.70
2018-03-24T09:58:02.999Z,5.80
2018-03-24T10:00:30.527Z,5.70
2018-03-24T10:02:58.035Z,6.00
2018-03-24T10:05:25.575Z,6.00
2018-03-24T10:07:53.079Z,5.70
2018-03-24T10:10:20.599Z,6.10
2018-03-24T10:12:48.106Z,6.10
2018-03-24T10:15:15.623Z,6.20
2018-03-24T10:17:43.127Z,6.20
2018-03-24T10:20:10.638Z,6.30
2018-03-24T10:23:00.803Z,6.70
2018-03-24T10:25:29.082Z,6.60
2018-03-24T10:27:56.595Z,6.60
2018-03-24T10:30:24.118Z,6.80
2018-03-24T10:32:51.615Z,6.30
2018-03-24T10:35:19.131Z,6.30
2018-03-24T10:37:52.414Z,6.10
2018-03-24T10:40:19.931Z,6.40
2018-03-24T10:42:53.102Z,6.70
2018-03-24T10:45:20.638Z,6.90
2018-03-24T10:47:48.136Z,6.90
2018-03-24T10:50:15.652Z,7.10
2018-03-24T10:52:43.171Z,6.90
2018-03-24T10:55:11.443Z,6.70
2018-03-24T10:57:38.959Z,6.60
2018-03-24T11:00:06.471Z,6.70
2018-03-24T11:02:34.760Z,7.30
2018-03-24T11:05:02.263Z,7.30
2018-03-24T11:07:30.551Z,6.70
2018-03-24T11:09:58.054Z,6.70
2018-03-24T11:12:25.634Z,6.60
2018-03-24T11:14:53.871Z,7.10
2018-03-24T11:17:21.415Z,7.00
2018-03-24T11:19:48.920Z,7.10
2018-03-24T11:22:16.443Z,7.50
2018-03-24T11:24:44.710Z,7.30
2018-03-24T11:27:12.235Z,7.30
2018-03-24T11:29:39.742Z,7.50
2018-03-24T11:32:08.022Z,7.50
2018-03-24T11:34:36.296Z,7.40
2018-03-24T11:37:04.586Z,7.60
2018-03-24T11:39:32.091Z,7.60
2018-03-24T11:41:59.619Z,7.60
2018-03-24T11:44:27.118Z,7.60
2018-03-24T11:46:54.634Z,7.80
2018-03-24T11:49:22.143Z,7.60
2018-03-24T11:51:49.658Z,7.60
2018-03-24T11:54:29.114Z,7.90
2018-03-24T11:56:56.630Z,8.00
2018-03-24T11:59:24.134Z,7.80
2018-03-24T12:01:51.684Z,7.90
2018-03-24T12:04:19.187Z,7.90
2018-03-24T12:06:47.475Z,7.90
2018-03-24T12:09:14.983Z,7.90
2018-03-24T12:11:42.507Z,7.90
2018-03-24T12:14:10.015Z,8.10
2018-03-24T12:16:37.539Z,8.00
2018-03-24T12:19:05.047Z,8.10
2018-03-24T12:21:33.314Z,8.10
2018-03-24T12:24:00.839Z,8.10
2018-03-24T12:26:28.351Z,8.10
2018-03-24T12:28:56.641Z,8.30
2018-03-24T12:31:24.146Z,8.30
2018-03-24T12:33:51.667Z,8.30
2018-03-24T12:36:19.166Z,8.30
2018-03-24T12:38:46.725Z,8.40
2018-03-24T12:41:14.214Z,8.30
2018-03-24T12:43:42.495Z,8.40
2018-03-24T12:46:12.606Z,8.50
2018-03-24T12:48:40.895Z,8.20
2018-03-24T12:51:08.406Z,8.20
2018-03-24T12:53:36.695Z,8.30
2018-03-24T12:56:04.211Z,8.20
2018-03-24T12:58:31.736Z,8.00
2018-03-24T13:01:00.007Z,8.30
2018-03-24T13:03:28.298Z,8.40
2018-03-24T13:05:55.803Z,8.40
2018-03-24T13:08:23.319Z,8.60
2018-03-24T13:10:50.835Z,8.60
2018-03-24T13:13:18.365Z,8.60
2018-03-24T13:15:46.644Z,8.40
2018-03-24T13:18:14.159Z,8.40
2018-03-24T13:20:42.434Z,8.50
2018-03-24T13:23:09.963Z,8.40
2018-03-24T13:25:37.472Z,8.40
2018-03-24T13:28:04.988Z,8.60
2018-03-24T13:30:32.487Z,8.60
2018-03-24T13:33:00.006Z,8.50
2018-03-24T13:35:28.274Z,8.60
2018-03-24T13:37:55.794Z,8.60
2018-03-24T13:40:23.303Z,8.80
2018-03-24T13:42:51.595Z,8.70
2018-03-24T13:45:19.866Z,8.60
2018-03-24T13:47:48.154Z,8.90
2018-03-24T13:50:15.670Z,8.80
2018-03-24T13:52:43.190Z,8.80
2018-03-24T13:55:10.695Z,8.90
2018-03-24T13:57:38.214Z,8.80
2018-03-24T14:00:05.723Z,8.60
2018-03-24T14:02:34.019Z,9.10
2018-03-24T14:05:01.522Z,9.20
2018-03-24T14:07:29.053Z,9.10
2018-03-24T14:09:56.557Z,9.00
2018-03-24T14:12:24.080Z,8.90
2018-03-24T14:14:51.582Z,9.10
2018-03-24T14:17:19.874Z,9.10
2018-03-24T14:19:48.148Z,9.00
2018-03-24T14:22:16.414Z,8.40
2018-03-24T14:24:44.715Z,8.60
2018-03-24T14:27:12.227Z,8.60
2018-03-24T14:29:39.753Z,8.70
2018-03-24T14:32:07.250Z,8.70
2018-03-24T14:34:34.770Z,8.70
2018-03-24T14:37:02.276Z,8.90
2018-03-24T14:39:29.799Z,8.90
2018-03-24T14:41:57.307Z,8.70
2018-03-24T14:44:25.590Z,8.20
2018-03-24T14:46:53.863Z,8.20
2018-03-24T14:49:22.142Z,8.40
2018-03-24T14:51:50.419Z,8.50
2018-03-24T14:54:18.702Z,8.60
2018-03-24T14:56:46.208Z,8.60
2018-03-24T14:59:13.724Z,8.40
2018-03-24T15:01:41.223Z,8.70
2018-03-24T15:04:08.752Z,8.80
2018-03-24T15:06:36.256Z,8.60
2018-03-24T15:09:03.774Z,8.70
2018-03-24T15:11:31.278Z,8.70
2018-03-24T15:13:58.807Z,8.90
2018-03-24T15:16:26.323Z,9.00
2018-03-24T15:18:53.842Z,8.80
2018-03-24T15:21:21.339Z,8.60
2018-03-24T15:23:48.871Z,8.60
2018-03-24T15:26:16.380Z,8.50
2018-03-24T15:28:55.827Z,8.70
2018-03-24T15:31:35.252Z,8.90
2018-03-24T15:34:14.736Z,8.80
2018-03-24T15:36:44.951Z,8.60
2018-03-24T15:39:12.534Z,8.60
2018-03-24T15:41:39.998Z,8.50
2018-03-24T15:44:08.275Z,8.50
2018-03-24T15:46:36.546Z,8.50
2018-03-24T15:49:04.838Z,8.30
2018-03-24T15:51:32.347Z,8.30
2018-03-24T15:53:59.867Z,8.50
2018-03-24T15:56:27.366Z,8.40
2018-03-24T15:58:54.887Z,8.40
2018-03-24T16:01:22.399Z,8.30
2018-03-24T16:03:49.923Z,8.30
2018-03-24T16:06:17.426Z,8.10
2018-03-24T16:08:45.710Z,8.00
2018-03-24T16:11:13.983Z,7.90
2018-03-24T16:13:42.267Z,7.90
2018-03-24T16:16:10.539Z,7.90
2018-03-24T16:18:38.068Z,7.90
2018-03-24T16:21:05.571Z,7.90
2018-03-24T16:23:33.127Z,7.70
2018-03-24T16:26:00.635Z,7.70
2018-03-24T16:28:28.154Z,7.60
2018-03-24T16:30:55.663Z,7.50
2018-03-24T16:33:23.774Z,7.50
2018-03-24T16:35:51.306Z,7.40
2018-03-24T16:38:19.635Z,7.20
2018-03-24T16:40:47.205Z,7.20
2018-03-24T16:43:14.711Z,7.20
2018-03-24T16:45:42.319Z,7.00
2018-03-24T16:48:09.825Z,6.80
2018-03-24T16:50:38.107Z,6.60
2018-03-24T16:53:06.379Z,6.60
2018-03-24T16:55:34.666Z,6.50
2018-03-24T16:58:02.179Z,6.50
2018-03-24T17:00:29.699Z,6.40
2018-03-24T17:02:57.202Z,6.30
2018-03-24T17:05:24.727Z,6.10
2018-03-24T17:07:52.226Z,6.00
2018-03-24T17:10:19.755Z,5.90
2018-03-24T17:12:48.028Z,5.80
2018-03-24T17:15:15.543Z,5.80
2018-03-24T17:17:43.819Z,5.60
2018-03-24T17:20:12.098Z,5.50
2018-03-24T17:22:39.607Z,5.50
2018-03-24T17:25:07.127Z,5.40
2018-03-24T17:27:34.641Z,5.20
2018-03-24T17:30:02.163Z,5.10
2018-03-24T17:32:29.670Z,5.10
2018-03-24T17:34:57.966Z,4.90
2018-03-24T17:37:25.486Z,4.90
2018-03-24T17:39:53.011Z,5.00
2018-03-24T17:42:20.526Z,5.00
2018-03-24T17:44:48.094Z,5.00
2018-03-24T17:47:15.602Z,4.90
2018-03-24T17:49:43.122Z,4.70
2018-03-24T17:52:10.631Z,4.50
2018-03-24T17:54:38.163Z,4.40
2018-03-24T17:57:05.671Z,4.40
2018-03-24T17:59:33.967Z,4.30
2018-03-24T18:02:01.475Z,4.30
2018-03-24T18:04:29.006Z,4.20
2018-03-24T18:06:56.514Z,4.10
2018-03-24T18:09:24.048Z,4.10
2018-03-24T18:11:51.554Z,4.10
2018-03-24T18:14:19.074Z,3.90
2018-03-24T18:16:46.600Z,3.80
2018-03-24T18:19:14.122Z,3.70
2018-03-24T18:21:42.397Z,3.60
2018-03-24T18:24:10.690Z,3.60
2018-03-24T18:26:38.199Z,3.60
2018-03-24T18:29:05.698Z,3.70
2018-03-24T18:31:33.223Z,3.60
2018-03-24T18:34:00.739Z,3.60
2018-03-24T18:36:28.258Z,3.50
2018-03-24T18:38:56.534Z,3.50
2018-03-24T18:41:24.837Z,3.30
2018-03-24T18:43:52.504Z,3.30
2018-03-24T18:46:20.022Z,3.20
2018-03-24T18:48:48.294Z,3.00
2018-03-24T18:51:15.809Z,3.00
2018-03-24T18:53:43.330Z,2.90
2018-03-24T18:56:11.610Z,2.60
2018-03-24T18:58:39.889Z,2.60
2018-03-24T19:01:07.411Z,2.50
2018-03-24T19:03:34.920Z,2.50
2018-03-24T19:06:02.438Z,2.50
2018-03-24T19:08:29.939Z,2.40
2018-03-24T19:10:57.465Z,2.40
2018-03-24T19:13:25.743Z,2.30
2018-03-24T19:15:54.026Z,2.20
2018-03-24T19:18:22.298Z,2.20
2018-03-24T19:20:50.578Z,2.20
2018-03-24T19:23:18.874Z,2.10
2018-03-24T19:25:46.390Z,2.10
2018-03-24T19:28:13.895Z,2.00
2018-03-24T19:30:41.443Z,2.00
2018-03-24T19:33:08.953Z,1.90
2018-03-24T19:35:36.478Z,1.80
2018-03-24T19:38:03.986Z,1.80
2018-03-24T19:40:32.283Z,1.60
2018-03-24T19:43:00.557Z,1.60
2018-03-24T19:45:28.844Z,1.50
2018-03-24T19:47:56.350Z,1.50
2018-03-24T19:50:23.871Z,1.30
2018-03-24T19:52:51.391Z,1.20
2018-03-24T19:55:19.683Z,1.10
2018-03-24T19:57:47.265Z,1.10
2018-03-24T20:00:14.746Z,1.10
2018-03-24T20:02:42.267Z,1.00
2018-03-24T20:05:09.791Z,1.00
2018-03-24T20:07:37.296Z,1.00
2018-03-24T20:10:04.826Z,1.00
2018-03-24T20:12:33.097Z,0.90
2018-03-24T20:15:01.387Z,0.90
2018-03-24T20:17:29.660Z,0.90
2018-03-24T20:19:57.943Z,0.80
2018-03-24T20:22:25.463Z,0.80
2018-03-24T20:24:52.987Z,0.70
2018-03-24T20:27:20.490Z,0.70
2018-03-24T20:29:48.014Z,0.60
2018-03-24T20:32:15.530Z,0.70
2018-03-24T20:34:43.803Z,0.60
2018-03-24T20:37:12.089Z,0.60
2018-03-24T20:39:39.658Z,0.60
2018-03-24T20:42:07.143Z,0.60
2018-03-24T20:44:34.650Z,0.50
2018-03-24T20:47:02.940Z,0.50
2018-03-24T20:49:30.454Z,0.40
2018-03-24T20:51:57.987Z,0.50
2018-03-24T20:54:25.490Z,0.60
2018-03-24T20:56:53.780Z,0.50
2018-03-24T20:59:22.053Z,0.40
2018-03-24T21:01:50.338Z,0.50
2018-03-24T21:04:17.846Z,0.50
2018-03-24T21:06:45.368Z,0.40
2018-03-24T21:09:12.881Z,0.50
2018-03-24T21:11:40.408Z,0.50
2018-03-24T21:14:07.915Z,0.50
2018-03-24T21:16:36.212Z,0.50
2018-03-24T21:19:03.721Z,0.50
2018-03-24T21:21:31.248Z,0.50
2018-03-24T21:23:58.747Z,0.60
2018-03-24T21:26:26.273Z,0.60
2018-03-24T21:28:53.825Z,0.60
2018-03-24T21:31:21.346Z,0.60
2018-03-24T21:33:49.618Z,0.60
2018-03-24T21:36:17.911Z,0.60
2018-03-24T21:38:45.427Z,0.60
2018-03-24T21:41:12.951Z,0.60
2018-03-24T21:43:40.454Z,0.60
2018-03-24T21:46:07.983Z,0.50
2018-03-24T21:48:35.500Z,0.50
2018-03-24T21:51:03.024Z,0.50
2018-03-24T21:53:30.535Z,0.50
2018-03-24T21:55:58.057Z,0.50
2018-03-24T21:58:26.334Z,0.50
2018-03-24T22:00:54.623Z,0.50
2018-03-24T22:03:22.127Z,0.50
2018-03-24T22:05:49.664Z,0.40
2018-03-24T22:08:17.163Z,0.40
2018-03-24T22:10:44.672Z,0.40
2018-03-24T22:13:12.195Z,0.40
2018-03-24T22:15:40.471Z,0.40
2018-03-24T22:18:08.762Z,0.30
2018-03-24T22:20:37.023Z,0.30
2018-03-24T22:23:05.315Z,0.40
2018-03-24T22:25:33.584Z,0.40
2018-03-24T22:28:01.879Z,0.60
2018-03-24T22:30:29.383Z,0.60
2018-03-24T22:32:56.904Z,0.50
2018-03-24T22:35:24.406Z,0.50
2018-03-24T22:37:51.927Z,0.50
2018-03-24T22:40:19.430Z,0.40
2018-03-24T22:42:46.959Z,0.40
2018-03-24T22:45:14.492Z,0.40
2018-03-24T22:47:42.007Z,0.30
2018-03-24T22:50:09.523Z,0.20
2018-03-24T22:52:37.047Z,0.10
2018-03-24T22:55:05.323Z,0.00
2018-03-24T22:57:33.622Z,-0.10
2018-03-24T23:00:01.136Z,-0.10
2018-03-24T23:02:28.691Z,-0.20
2018-03-24T23:04:56.190Z,-0.30
2018-03-24T23:07:23.719Z,-0.30
2018-03-24T23:09:51.992Z,-0.30
2018-03-24T23:12:20.288Z,-0.30
2018-03-24T23:14:48.565Z,-0.30
2018-03-24T23:17:16.115Z,-0.30
2018-03-24T23:19:44.392Z,-0.20
2018-03-24T23:22:12.692Z,-0.20
2018-03-24T23:24:40.216Z,-0.20
2018-03-24T23:27:08.510Z,-0.20
2018-03-24T23:29:36.013Z,-0.20
2018-03-24T23:32:03.533Z,-0.20
2018-03-24T23:34:31.046Z,-0.20
2018-03-24T23:36:58.574Z,-0.20
2018-03-24T23:39:26.091Z,-0.10
2018-03-24T23:41:54.370Z,-0.10
2018-03-24T23:44:22.638Z,-0.10
2018-03-24T23:46:50.931Z,-0.20
2018-03-24T23:49:18.439Z,-0.20
2018-03-24T23:51:46.729Z,-0.30
2018-03-24T23:54:14.234Z,-0.30
2018-03-24T23:56:41.764Z,-0.30
2018-03-24T23:59:10.059Z,-0.30
